Bearsdale, Illinois
Current Conditions -  °F | °C
As of 2:54 PM on Friday 19 Dec 2014 (Local Time) from KDEC Reporting Station
Clear Clear  
Wind Chill: 30°   Ceiling: Unl
Heat Index: 34°   Visibility: 7mi
Dew Point: 21°   Wind: 5mph
Humidity: 59%   Direction: 220°SW
Pressure: 30.3"   Gusts: NA
Location:  39.9062°N, 88.9645°W
Report Text: KDEC 192054Z 22004KT 7SM CLR 01/M06 A3030 RMK AO2 SLP270 T00111061 53000
Loading
Personal Weather Stations






























Interactive Weather Map New forecast layout! Learn more

10-Day Weather Forecast

Advertisements
Track Severe Weather on mobile